createdAt,value
2017-10-13T00:01:11.093Z,4.50
2017-10-13T00:03:37.395Z,5.00
2017-10-13T00:06:03.784Z,4.70
2017-10-13T00:08:30.104Z,4.23
2017-10-13T00:10:57.122Z,4.20
2017-10-13T00:13:23.459Z,4.80
2017-10-13T00:15:49.731Z,4.87
2017-10-13T00:18:16.070Z,4.20
2017-10-13T00:20:42.339Z,5.00
2017-10-13T00:23:08.919Z,5.53
2017-10-13T00:25:36.197Z,5.47
2017-10-13T00:28:02.473Z,5.50
2017-10-13T00:30:29.501Z,6.30
2017-10-13T00:32:55.845Z,6.00
2017-10-13T00:35:22.153Z,5.40
2017-10-13T00:37:48.442Z,4.37
2017-10-13T00:40:14.833Z,5.17
2017-10-13T00:42:41.881Z,6.20
2017-10-13T00:45:08.974Z,4.70
2017-10-13T00:47:35.278Z,5.20
2017-10-13T00:50:01.559Z,4.80
2017-10-13T00:52:27.858Z,5.20
2017-10-13T00:54:54.213Z,5.87
2017-10-13T00:57:20.557Z,5.00
2017-10-13T00:59:47.592Z,5.70
2017-10-13T01:02:14.205Z,5.77
2017-10-13T01:04:40.498Z,6.30
2017-10-13T01:07:06.829Z,5.53
2017-10-13T01:09:33.155Z,4.93
2017-10-13T01:11:59.478Z,5.30
2017-10-13T01:14:25.811Z,5.33
2017-10-13T01:16:52.141Z,5.80
2017-10-13T01:19:18.513Z,5.90
2017-10-13T01:21:44.847Z,5.67
2017-10-13T01:24:12.226Z,5.80
2017-10-13T01:26:38.576Z,5.90
2017-10-13T01:29:04.910Z,5.77
2017-10-13T01:31:31.263Z,5.83
2017-10-13T01:33:57.613Z,5.50
2017-10-13T01:36:23.963Z,6.20
2017-10-13T01:38:50.382Z,5.63
2017-10-13T01:41:16.731Z,6.67
2017-10-13T01:43:43.798Z,5.40
2017-10-13T01:46:10.540Z,6.60
2017-10-13T01:48:36.915Z,5.90
2017-10-13T01:51:03.234Z,5.37
2017-10-13T01:53:29.608Z,5.10
2017-10-13T01:55:56.686Z,5.97
2017-10-13T01:58:23.021Z,5.50
2017-10-13T02:00:49.353Z,5.40
2017-10-13T02:03:15.665Z,5.00
2017-10-13T02:05:42.000Z,5.20
2017-10-13T02:08:08.317Z,5.67
2017-10-13T02:10:34.637Z,5.60
2017-10-13T02:13:00.983Z,5.87
2017-10-13T02:15:27.313Z,5.73
2017-10-13T02:17:53.619Z,5.43
2017-10-13T02:20:21.091Z,6.37
2017-10-13T02:22:47.406Z,5.30
2017-10-13T02:25:14.494Z,6.00
2017-10-13T02:27:40.808Z,5.90
2017-10-13T02:30:07.107Z,6.00
2017-10-13T02:32:34.123Z,5.63
2017-10-13T02:35:00.459Z,4.97
2017-10-13T02:37:26.804Z,5.90
2017-10-13T02:39:53.921Z,5.70
2017-10-13T02:42:20.263Z,5.33
2017-10-13T02:44:46.593Z,5.53
2017-10-13T02:47:12.899Z,4.73
2017-10-13T02:49:39.224Z,5.20
2017-10-13T02:52:05.584Z,5.03
2017-10-13T02:54:31.940Z,6.23
2017-10-13T02:59:31.202Z,5.30
2017-10-13T03:01:57.511Z,5.70
2017-10-13T03:04:23.787Z,5.23
2017-10-13T03:06:50.061Z,5.03
2017-10-13T03:09:16.325Z,6.10
2017-10-13T03:11:43.403Z,5.43
2017-10-13T03:14:10.460Z,5.77
2017-10-13T03:16:36.847Z,6.33
2017-10-13T03:19:03.124Z,6.10
2017-10-13T03:21:29.394Z,5.70
2017-10-13T03:23:55.691Z,5.10
2017-10-13T03:26:21.991Z,5.50
2017-10-13T03:28:49.062Z,5.53
2017-10-13T03:31:15.366Z,5.20
2017-10-13T03:33:42.496Z,5.43
2017-10-13T03:36:08.855Z,5.70
2017-10-13T03:38:35.222Z,4.70
2017-10-13T03:41:01.586Z,5.30
2017-10-13T03:43:28.606Z,4.90
2017-10-13T03:45:55.014Z,5.37
2017-10-13T03:48:21.343Z,4.40
2017-10-13T03:50:47.666Z,4.50
2017-10-13T03:53:13.990Z,5.03
2017-10-13T03:55:40.404Z,4.93
2017-10-13T03:58:06.753Z,4.70
2017-10-13T04:00:33.456Z,3.53
2017-10-13T04:02:59.761Z,5.27
2017-10-13T04:05:26.075Z,5.50
2017-10-13T04:07:52.683Z,3.97
2017-10-13T04:10:19.723Z,5.07
2017-10-13T04:12:46.108Z,3.50
2017-10-13T04:15:13.203Z,4.70
2017-10-13T04:17:39.552Z,5.03
2017-10-13T04:20:05.828Z,4.60
2017-10-13T04:22:32.606Z,5.70
2017-10-13T04:24:58.880Z,6.37
2017-10-13T04:27:25.158Z,6.57
2017-10-13T04:29:51.496Z,8.20
2017-10-13T04:32:17.778Z,6.10
2017-10-13T04:34:44.891Z,7.10
2017-10-13T04:37:11.244Z,6.90
2017-10-13T04:39:38.614Z,5.77
2017-10-13T04:42:04.938Z,5.80
2017-10-13T04:44:31.974Z,7.10
2017-10-13T04:46:59.112Z,6.90
2017-10-13T04:49:25.464Z,6.47
2017-10-13T04:51:51.765Z,6.00
2017-10-13T04:54:18.093Z,5.83
2017-10-13T04:56:44.796Z,6.00
2017-10-13T04:59:11.069Z,6.30
2017-10-13T05:01:38.057Z,6.40
2017-10-13T05:04:04.372Z,8.47
2017-10-13T05:06:30.654Z,7.33
2017-10-13T05:08:57.023Z,6.90
2017-10-13T05:11:23.310Z,7.77
2017-10-13T05:13:49.620Z,7.23
2017-10-13T05:16:15.930Z,5.77
2017-10-13T05:18:42.219Z,6.93
2017-10-13T05:21:09.271Z,6.13
2017-10-13T05:23:36.378Z,8.00
2017-10-13T05:26:02.694Z,6.60
2017-10-13T05:28:29.016Z,6.80
2017-10-13T05:30:55.304Z,7.30
2017-10-13T05:33:22.565Z,8.30
2017-10-13T05:35:48.858Z,7.30
2017-10-13T05:38:15.158Z,7.00
2017-10-13T05:40:41.470Z,7.07
2017-10-13T05:43:07.776Z,6.93
2017-10-13T05:45:34.121Z,6.73
2017-10-13T05:48:00.434Z,6.80
2017-10-13T05:50:26.744Z,7.30
2017-10-13T05:52:53.782Z,6.43
2017-10-13T05:55:20.087Z,6.43
2017-10-13T05:57:46.392Z,6.73
2017-10-13T06:00:12.753Z,7.10
2017-10-13T06:02:39.096Z,7.50
2017-10-13T06:05:05.449Z,7.47
2017-10-13T06:07:31.855Z,7.47
2017-10-13T06:09:58.922Z,6.63
2017-10-13T06:12:26.002Z,7.20
2017-10-13T06:14:52.371Z,7.53
2017-10-13T06:17:18.778Z,6.70
2017-10-13T06:19:45.092Z,6.67
2017-10-13T06:22:11.398Z,7.73
2017-10-13T06:24:37.779Z,7.90
2017-10-13T06:27:04.102Z,8.20
2017-10-13T06:29:30.406Z,8.03
2017-10-13T06:31:56.690Z,8.37
2017-10-13T06:34:23.823Z,8.00
2017-10-13T06:36:50.857Z,9.00
2017-10-13T06:39:17.226Z,10.23
2017-10-13T06:41:50.730Z,10.40
2017-10-13T06:44:17.043Z,9.50
2017-10-13T06:46:43.364Z,9.47
2017-10-13T06:49:10.422Z,9.40
2017-10-13T06:51:37.527Z,9.33
2017-10-13T06:54:03.860Z,9.93
2017-10-13T06:56:30.185Z,10.70
2017-10-13T06:58:56.486Z,11.40
2017-10-13T07:01:22.825Z,12.30
2017-10-13T07:03:49.157Z,13.57
2017-10-13T07:06:15.474Z,10.73
2017-10-13T07:08:41.828Z,11.07
2017-10-13T07:11:08.176Z,9.43
2017-10-13T07:13:34.491Z,7.20
2017-10-13T07:16:00.842Z,8.10
2017-10-13T07:18:27.979Z,8.33
2017-10-13T07:20:54.288Z,8.23
2017-10-13T07:23:20.626Z,7.13
2017-10-13T07:25:46.944Z,8.27
2017-10-13T07:28:13.341Z,7.80
2017-10-13T07:30:39.731Z,7.50
2017-10-13T07:33:06.017Z,7.57
2017-10-13T07:35:32.328Z,7.57
2017-10-13T07:37:58.617Z,7.57
2017-10-13T07:40:25.711Z,7.30
2017-10-13T07:42:52.021Z,7.20
2017-10-13T07:45:18.331Z,7.17
2017-10-13T07:47:45.363Z,7.00
2017-10-13T07:50:11.959Z,6.50
2017-10-13T07:52:38.228Z,6.70
2017-10-13T07:55:05.227Z,5.93
2017-10-13T07:57:31.589Z,6.23
2017-10-13T07:59:57.858Z,6.90
2017-10-13T08:02:24.194Z,6.27
2017-10-13T08:04:50.547Z,6.43
2017-10-13T08:07:16.857Z,6.30
2017-10-13T08:09:43.108Z,6.57
2017-10-13T08:12:09.670Z,7.57
2017-10-13T08:14:36.712Z,5.90
2017-10-13T08:17:03.036Z,6.23
2017-10-13T08:19:29.346Z,6.13
2017-10-13T08:21:55.712Z,6.30
2017-10-13T08:24:22.552Z,6.67
2017-10-13T08:26:48.860Z,5.17
2017-10-13T08:29:15.280Z,5.20
2017-10-13T08:31:41.553Z,5.80
2017-10-13T08:34:08.645Z,5.90
2017-10-13T08:36:34.976Z,5.43
2017-10-13T08:39:01.239Z,4.73
2017-10-13T08:41:28.275Z,5.33
2017-10-13T08:43:54.578Z,4.83
2017-10-13T08:46:20.865Z,4.63
2017-10-13T08:48:47.148Z,4.50
2017-10-13T08:51:13.452Z,4.10
2017-10-13T08:53:39.731Z,4.60
2017-10-13T08:56:06.494Z,4.73
2017-10-13T08:58:32.819Z,4.20
2017-10-13T09:00:59.154Z,3.60
2017-10-13T09:03:25.472Z,3.57
2017-10-13T09:05:51.806Z,3.50
2017-10-13T09:08:18.179Z,3.40
2017-10-13T09:10:44.519Z,3.40
2017-10-13T09:13:11.152Z,3.33
2017-10-13T09:15:37.481Z,3.47
2017-10-13T09:18:03.865Z,2.50
2017-10-13T09:20:30.190Z,3.03
2017-10-13T09:23:02.489Z,3.57
2017-10-13T09:25:28.830Z,3.17
2017-10-13T09:27:55.148Z,3.00
2017-10-13T09:30:21.514Z,3.10
2017-10-13T09:32:47.833Z,3.40
2017-10-13T09:35:14.457Z,3.17
2017-10-13T09:37:40.753Z,3.40
2017-10-13T09:40:07.087Z,3.20
2017-10-13T09:42:33.425Z,3.10
2017-10-13T09:44:59.738Z,3.10
2017-10-13T09:47:26.141Z,4.00
2017-10-13T09:49:53.174Z,3.10
2017-10-13T09:52:19.837Z,3.47
2017-10-13T09:54:46.110Z,3.20
2017-10-13T09:57:12.472Z,3.27
2017-10-13T09:59:39.519Z,4.00
2017-10-13T10:02:05.830Z,4.00
2017-10-13T10:04:32.507Z,4.13
2017-10-13T10:06:58.815Z,4.30
2017-10-13T10:09:25.847Z,3.77
2017-10-13T10:11:52.157Z,3.80
2017-10-13T10:14:18.471Z,3.30
2017-10-13T10:16:44.770Z,3.17
2017-10-13T10:19:11.072Z,2.83
2017-10-13T10:21:38.111Z,3.33
2017-10-13T10:24:04.416Z,2.80
2017-10-13T10:26:30.710Z,2.90
2017-10-13T10:28:57.263Z,3.73
2017-10-13T10:31:23.621Z,3.97
2017-10-13T10:33:49.951Z,4.00
2017-10-13T10:36:16.286Z,3.33
2017-10-13T10:38:43.419Z,3.10
2017-10-13T10:41:09.694Z,3.57
2017-10-13T10:43:36.287Z,2.50
2017-10-13T10:46:02.576Z,4.33
2017-10-13T10:48:28.894Z,3.10
2017-10-13T10:50:55.233Z,3.00
2017-10-13T10:53:21.570Z,2.70
2017-10-13T10:55:47.911Z,3.23
2017-10-13T10:58:14.175Z,3.07
2017-10-13T11:00:41.226Z,2.43
2017-10-13T11:03:08.306Z,3.63
2017-10-13T11:05:34.668Z,2.93
2017-10-13T11:08:00.990Z,2.40
2017-10-13T11:10:27.280Z,2.60
2017-10-13T11:12:53.560Z,2.80
2017-10-13T11:15:19.866Z,2.10
2017-10-13T11:17:46.192Z,2.50
2017-10-13T11:20:12.503Z,3.00
2017-10-13T11:22:38.749Z,2.87
2017-10-13T11:25:05.189Z,2.50
2017-10-13T11:27:31.520Z,2.40
2017-10-13T11:29:58.015Z,2.20
2017-10-13T11:32:24.331Z,2.53
2017-10-13T11:34:50.695Z,2.60
2017-10-13T11:37:16.949Z,3.10
2017-10-13T11:39:43.269Z,16.70
2017-10-13T11:42:09.538Z,3.17
2017-10-13T11:44:35.901Z,1.97
2017-10-13T11:47:02.514Z,2.13
2017-10-13T11:49:28.842Z,2.10
2017-10-13T11:51:55.171Z,2.53
2017-10-13T11:54:21.494Z,2.27
2017-10-13T11:56:48.547Z,2.03
2017-10-13T11:59:14.844Z,2.10
2017-10-13T12:01:41.193Z,2.03
2017-10-13T12:04:08.180Z,1.93
2017-10-13T12:06:34.802Z,2.53
2017-10-13T12:09:01.084Z,1.90
2017-10-13T12:11:27.370Z,2.30
2017-10-13T12:13:53.661Z,2.53
2017-10-13T12:16:19.959Z,2.30
2017-10-13T12:18:46.380Z,1.90
2017-10-13T12:21:12.653Z,1.63
2017-10-13T12:23:39.013Z,2.10
2017-10-13T12:26:05.338Z,2.80
2017-10-13T12:28:31.650Z,2.10
2017-10-13T12:30:58.035Z,2.10
2017-10-13T12:33:24.351Z,2.07
2017-10-13T12:35:50.666Z,1.63
2017-10-13T12:38:16.973Z,2.17
2017-10-13T12:40:43.350Z,2.10
2017-10-13T12:43:09.671Z,1.80
2017-10-13T12:45:36.044Z,2.00
2017-10-13T12:48:02.355Z,2.33
2017-10-13T12:50:29.420Z,2.10
2017-10-13T12:52:55.759Z,1.83
2017-10-13T12:55:22.138Z,1.93
2017-10-13T12:57:48.490Z,2.20
2017-10-13T13:00:15.533Z,1.97
2017-10-13T13:02:42.635Z,2.20
2017-10-13T13:05:08.914Z,1.90
2017-10-13T13:07:35.946Z,1.77
2017-10-13T13:10:02.321Z,1.80
2017-10-13T13:12:28.634Z,2.00
2017-10-13T13:14:54.935Z,2.00
2017-10-13T13:17:21.998Z,1.70
2017-10-13T13:19:49.041Z,2.27
2017-10-13T13:22:15.327Z,2.00
2017-10-13T13:24:41.626Z,1.87
2017-10-13T13:27:08.680Z,1.70
2017-10-13T13:29:34.980Z,2.00
2017-10-13T13:32:01.303Z,1.97
2017-10-13T13:34:28.415Z,2.60
2017-10-13T13:36:54.731Z,1.97
2017-10-13T13:39:21.054Z,2.40
2017-10-13T13:41:47.751Z,2.63
2017-10-13T13:44:14.061Z,2.97
2017-10-13T13:46:41.109Z,1.93
2017-10-13T13:49:08.244Z,2.50
2017-10-13T13:51:34.562Z,2.43
2017-10-13T13:54:00.892Z,2.30
2017-10-13T13:56:27.215Z,1.80
2017-10-13T13:58:53.808Z,2.00
2017-10-13T14:01:20.114Z,2.20
2017-10-13T14:03:47.170Z,1.97
2017-10-13T14:06:13.476Z,2.10
2017-10-13T14:08:40.551Z,2.40
2017-10-13T14:11:06.868Z,2.37
2017-10-13T14:13:33.302Z,2.00
2017-10-13T14:15:59.642Z,1.60
2017-10-13T14:18:25.932Z,1.77
2017-10-13T14:20:52.964Z,1.77
2017-10-13T14:23:19.301Z,1.77
2017-10-13T14:25:45.623Z,1.57
2017-10-13T14:28:12.706Z,2.20
2017-10-13T14:30:39.120Z,1.63
2017-10-13T14:33:06.194Z,2.37
2017-10-13T14:35:32.522Z,1.80
2017-10-13T14:37:58.835Z,1.87
2017-10-13T14:40:25.924Z,1.87
2017-10-13T14:42:52.216Z,2.37
2017-10-13T14:45:18.618Z,2.20
2017-10-13T14:47:44.974Z,1.67
2017-10-13T14:50:11.662Z,2.17
2017-10-13T14:52:37.946Z,1.40
2017-10-13T14:55:04.284Z,1.80
2017-10-13T14:57:30.585Z,1.83
2017-10-13T14:59:57.638Z,1.77
2017-10-13T15:02:23.985Z,1.60
2017-10-13T15:04:50.271Z,2.07
2017-10-13T15:07:16.570Z,1.43
2017-10-13T15:09:42.923Z,1.80
2017-10-13T15:12:09.286Z,1.80
2017-10-13T15:14:35.589Z,1.70
2017-10-13T15:17:02.642Z,1.53
2017-10-13T15:19:30.270Z,2.20
2017-10-13T15:21:56.632Z,2.20
2017-10-13T15:24:23.786Z,2.00
2017-10-13T15:26:50.898Z,2.13
2017-10-13T15:29:24.182Z,1.90
2017-10-13T15:31:56.476Z,1.63
2017-10-13T15:34:29.052Z,1.80
2017-10-13T15:36:56.138Z,2.07
2017-10-13T15:39:28.512Z,2.50
2017-10-13T15:42:01.047Z,2.53
2017-10-13T15:44:28.394Z,1.90
2017-10-13T15:47:00.612Z,2.00
2017-10-13T15:49:40.007Z,2.23
2017-10-13T15:52:12.454Z,2.20
2017-10-13T15:54:38.765Z,2.20
2017-10-13T15:57:05.090Z,2.43
2017-10-13T15:59:31.382Z,2.33
2017-10-13T16:01:58.438Z,2.20
2017-10-13T16:04:24.781Z,1.93
2017-10-13T16:06:51.097Z,2.30
2017-10-13T16:09:17.467Z,2.40
2017-10-13T16:11:43.816Z,2.20
2017-10-13T16:14:12.294Z,2.23
2017-10-13T16:16:39.886Z,2.10
2017-10-13T16:19:09.125Z,2.00
2017-10-13T16:21:35.929Z,2.40
2017-10-13T16:24:03.191Z,2.03
2017-10-13T16:26:30.584Z,2.17
2017-10-13T16:29:00.840Z,2.70
2017-10-13T16:31:27.417Z,1.93
2017-10-13T16:33:53.733Z,2.27
2017-10-13T16:36:20.037Z,2.00
2017-10-13T16:38:48.238Z,1.90
2017-10-13T16:41:14.791Z,1.77
2017-10-13T16:43:41.286Z,2.33
2017-10-13T16:46:07.696Z,2.50
2017-10-13T16:48:34.023Z,3.20
2017-10-13T16:51:00.674Z,2.23
2017-10-13T16:53:27.000Z,2.30
2017-10-13T16:55:53.382Z,2.43
2017-10-13T16:58:20.340Z,2.50
2017-10-13T17:00:46.745Z,3.07
2017-10-13T17:03:13.109Z,2.60
2017-10-13T17:08:41.545Z,2.20
2017-10-13T17:11:08.597Z,2.33
2017-10-13T17:13:34.895Z,2.40
2017-10-13T17:16:01.986Z,2.57
2017-10-13T17:18:28.313Z,2.77
2017-10-13T17:20:54.611Z,2.97
2017-10-13T17:23:20.919Z,4.20
2017-10-13T17:25:48.023Z,3.20
2017-10-13T17:28:14.753Z,3.00
2017-10-13T17:30:41.130Z,2.50
2017-10-13T17:33:08.279Z,3.10
2017-10-13T17:35:35.349Z,2.83
2017-10-13T17:38:01.706Z,4.30
2017-10-13T17:40:28.077Z,5.53
2017-10-13T17:42:55.167Z,5.00
2017-10-13T17:45:21.570Z,3.27
2017-10-13T17:47:47.916Z,3.40
2017-10-13T17:50:14.317Z,2.87
2017-10-13T17:52:40.695Z,3.10
2017-10-13T17:55:07.039Z,2.77
2017-10-13T17:57:33.394Z,4.43
2017-10-13T17:59:59.774Z,4.13
2017-10-13T18:02:26.211Z,4.40
2017-10-13T18:04:52.595Z,4.20
2017-10-13T18:07:19.051Z,5.77
2017-10-13T18:09:45.558Z,6.10
2017-10-13T18:12:12.781Z,4.70
2017-10-13T18:14:39.232Z,5.30
2017-10-13T18:17:06.420Z,4.60
2017-10-13T18:19:32.913Z,4.83
2017-10-13T18:22:00.093Z,4.10
2017-10-13T18:24:26.547Z,3.50
2017-10-13T18:26:53.081Z,4.80
2017-10-13T18:29:19.786Z,4.40
2017-10-13T18:31:46.465Z,3.80
2017-10-13T18:34:12.891Z,4.13
2017-10-13T18:36:39.397Z,3.80
2017-10-13T18:39:05.842Z,3.93
2017-10-13T18:41:32.287Z,3.43
2017-10-13T18:43:58.680Z,3.50
2017-10-13T18:46:25.151Z,4.47
2017-10-13T18:48:51.664Z,4.70
2017-10-13T18:51:18.108Z,4.43
2017-10-13T18:53:44.590Z,7.07
2017-10-13T18:56:11.787Z,5.00
2017-10-13T18:58:38.246Z,5.80
2017-10-13T19:01:04.620Z,5.37
2017-10-13T19:03:31.199Z,6.10
2017-10-13T19:05:57.642Z,5.47
2017-10-13T19:08:24.039Z,6.13
2017-10-13T19:10:50.456Z,5.60
2017-10-13T19:13:16.854Z,5.07
2017-10-13T19:15:43.408Z,5.70
2017-10-13T19:18:10.627Z,5.73
2017-10-13T19:20:37.080Z,6.53
2017-10-13T19:23:04.307Z,5.40
2017-10-13T19:25:30.704Z,6.40
2017-10-13T19:27:57.101Z,6.27
2017-10-13T19:30:24.332Z,5.97
2017-10-13T19:32:50.719Z,5.80
2017-10-13T19:35:17.139Z,5.80
2017-10-13T19:37:43.546Z,5.80
2017-10-13T19:43:09.948Z,5.30
2017-10-13T19:45:36.347Z,5.27
2017-10-13T19:48:02.756Z,5.80
2017-10-13T19:50:29.908Z,6.10
2017-10-13T19:52:57.015Z,6.03
2017-10-13T19:55:23.315Z,6.23
2017-10-13T19:57:49.765Z,5.73
2017-10-13T20:00:16.193Z,5.60
2017-10-13T20:02:42.583Z,5.93
2017-10-13T20:05:09.724Z,6.50
2017-10-13T20:07:36.839Z,7.60
2017-10-13T20:10:03.298Z,9.30
2017-10-13T20:12:30.408Z,7.97
2017-10-13T20:14:56.865Z,9.33
2017-10-13T20:17:23.333Z,9.63
2017-10-13T20:19:49.803Z,8.83
2017-10-13T20:22:16.290Z,8.33
2017-10-13T20:24:42.864Z,8.67
2017-10-13T20:27:09.515Z,9.93
2017-10-13T20:29:35.955Z,10.43
2017-10-13T20:32:03.453Z,9.90
2017-10-13T20:34:30.105Z,10.20
2017-10-13T20:36:56.534Z,9.83
2017-10-13T20:39:22.921Z,10.68
2017-10-13T20:41:50.067Z,10.10
2017-10-13T20:44:17.194Z,10.10
2017-10-13T20:46:43.557Z,9.33
2017-10-13T20:49:09.980Z,9.52
2017-10-13T20:51:37.119Z,9.20
2017-10-13T20:54:03.476Z,9.37
2017-10-13T20:56:30.614Z,9.27
2017-10-13T20:58:57.731Z,8.80
2017-10-13T21:01:24.079Z,10.20
2017-10-13T21:03:50.402Z,10.20
2017-10-13T21:06:17.076Z,9.50
2017-10-13T21:08:43.452Z,10.02
2017-10-13T21:11:10.055Z,10.30
2017-10-13T21:13:36.368Z,9.82
2017-10-13T21:16:02.784Z,10.90
2017-10-13T21:18:29.147Z,11.32
2017-10-13T21:20:55.459Z,11.32
2017-10-13T21:23:21.774Z,10.35
2017-10-13T21:25:48.112Z,10.48
2017-10-13T21:28:14.452Z,9.82
2017-10-13T21:30:41.067Z,10.05
2017-10-13T21:33:07.406Z,10.47
2017-10-13T21:35:33.763Z,9.88
2017-10-13T21:38:00.038Z,9.95
2017-10-13T21:43:00.205Z,9.43
2017-10-13T21:45:26.584Z,9.30
2017-10-13T21:47:52.899Z,9.30
2017-10-13T21:50:19.211Z,9.68
2017-10-13T21:52:45.513Z,9.38
2017-10-13T21:55:11.851Z,10.55
2017-10-13T21:57:38.172Z,9.35
2017-10-13T22:00:04.476Z,9.93
2017-10-13T22:02:31.544Z,12.55
2017-10-13T22:05:03.863Z,11.07
2017-10-13T22:07:30.184Z,9.75
2017-10-13T22:09:56.475Z,8.80
2017-10-13T22:12:22.821Z,8.73
2017-10-13T22:14:49.123Z,8.65
2017-10-13T22:17:15.494Z,8.38
2017-10-13T22:19:41.844Z,9.13
2017-10-13T22:22:08.148Z,9.27
2017-10-13T22:24:34.489Z,8.50
2017-10-13T22:27:00.762Z,7.80
2017-10-13T22:29:27.104Z,9.45
2017-10-13T22:31:53.429Z,8.20
2017-10-13T22:34:19.663Z,8.07
2017-10-13T22:36:46.006Z,8.98
2017-10-13T22:39:12.278Z,8.45
2017-10-13T22:41:38.594Z,7.62
2017-10-13T22:44:04.962Z,8.02
2017-10-13T22:46:31.273Z,8.60
2017-10-13T22:48:58.356Z,7.35
2017-10-13T22:51:24.665Z,8.07
2017-10-13T22:53:50.951Z,8.52
2017-10-13T22:56:17.230Z,8.43
2017-10-13T22:58:43.567Z,8.15
2017-10-13T23:01:09.879Z,7.37
2017-10-13T23:03:36.265Z,7.90
2017-10-13T23:06:02.565Z,8.57
2017-10-13T23:08:49.552Z,9.68
2017-10-13T23:11:15.905Z,8.23
2017-10-13T23:13:42.201Z,7.95
2017-10-13T23:16:09.247Z,8.25
2017-10-13T23:18:36.302Z,9.20
2017-10-13T23:21:02.603Z,8.15
2017-10-13T23:23:31.011Z,7.82
2017-10-13T23:25:57.362Z,8.65
2017-10-13T23:28:23.632Z,7.87
2017-10-13T23:30:50.125Z,8.38
2017-10-13T23:33:16.425Z,7.05
2017-10-13T23:35:42.778Z,8.25
2017-10-13T23:38:09.031Z,8.00
2017-10-13T23:40:35.300Z,8.05
2017-10-13T23:43:02.328Z,7.03
2017-10-13T23:45:28.675Z,7.60
2017-10-13T23:47:55.712Z,7.53
2017-10-13T23:50:22.735Z,7.85
2017-10-13T23:52:49.337Z,8.05
2017-10-13T23:55:15.733Z,8.48
2017-10-13T23:57:42.831Z,8.27
